sensor_id;sensor_type;location;lat;lon;timestamp;temperature;humidity
27900;DHT22;15243;50.726;7.080;2023-04-10T00:00:34;5.40;99.90
27900;DHT22;15243;50.726;7.080;2023-04-10T00:03:02;5.40;99.90
27900;DHT22;15243;50.726;7.080;2023-04-10T00:05:30;5.40;99.90
27900;DHT22;15243;50.726;7.080;2023-04-10T00:07:57;5.40;99.90
27900;DHT22;15243;50.726;7.080;2023-04-10T00:10:24;5.40;99.90
27900;DHT22;15243;50.726;7.080;2023-04-10T00:12:52;5.40;99.90
27900;DHT22;15243;50.726;7.080;2023-04-10T00:15:19;5.40;99.90
27900;DHT22;15243;50.726;7.080;2023-04-10T00:17:46;5.40;99.90
27900;DHT22;15243;50.726;7.080;2023-04-10T00:20:16;5.40;99.90
27900;DHT22;15243;50.726;7.080;2023-04-10T00:22:43;5.30;99.90
27900;DHT22;15243;50.726;7.080;2023-04-10T00:25:10;5.40;99.90
27900;DHT22;15243;50.726;7.080;2023-04-10T00:27:37;5.40;99.90
27900;DHT22;15243;50.726;7.080;2023-04-10T00:30:04;5.40;99.90
27900;DHT22;15243;50.726;7.080;2023-04-10T00:32:31;5.40;99.90
27900;DHT22;15243;50.726;7.080;2023-04-10T00:34:58;5.30;99.90
27900;DHT22;15243;50.726;7.080;2023-04-10T00:37:25;5.30;99.90
27900;DHT22;15243;50.726;7.080;2023-04-10T00:39:53;5.30;99.90
27900;DHT22;15243;50.726;7.080;2023-04-10T00:42:20;5.30;99.90
27900;DHT22;15243;50.726;7.080;2023-04-10T00:44:47;5.30;99.90
27900;DHT22;15243;50.726;7.080;2023-04-10T00:47:14;5.40;99.90
27900;DHT22;15243;50.726;7.080;2023-04-10T00:49:42;5.30;99.90
27900;DHT22;15243;50.726;7.080;2023-04-10T00:52:09;5.30;99.90
27900;DHT22;15243;50.726;7.080;2023-04-10T00:54:37;5.30;99.90
27900;DHT22;15243;50.726;7.080;2023-04-10T00:57:04;5.40;99.90
27900;DHT22;15243;50.726;7.080;2023-04-10T00:59:31;5.40;99.90
27900;DHT22;15243;50.726;7.080;2023-04-10T01:01:59;5.40;99.90
27900;DHT22;15243;50.726;7.080;2023-04-10T01:04:27;5.40;99.90
27900;DHT22;15243;50.726;7.080;2023-04-10T01:15:22;5.30;99.90
27900;DHT22;15243;50.726;7.080;2023-04-10T01:20:47;5.30;99.90
27900;DHT22;15243;50.726;7.080;2023-04-10T01:26:02;5.20;99.90
27900;DHT22;15243;50.726;7.080;2023-04-10T01:31:41;5.10;99.90
27900;DHT22;15243;50.726;7.080;2023-04-10T01:34:11;5.00;99.90
27900;DHT22;15243;50.726;7.080;2023-04-10T01:37:03;5.00;99.90
27900;DHT22;15243;50.726;7.080;2023-04-10T01:39:35;5.00;99.90
27900;DHT22;15243;50.726;7.080;2023-04-10T01:42:03;5.00;99.90
27900;DHT22;15243;50.726;7.080;2023-04-10T01:44:31;4.90;99.90
27900;DHT22;15243;50.726;7.080;2023-04-10T01:47:00;4.90;99.90
27900;DHT22;15243;50.726;7.080;2023-04-10T01:49:28;4.90;99.90
27900;DHT22;15243;50.726;7.080;2023-04-10T01:51:57;5.00;99.90
27900;DHT22;15243;50.726;7.080;2023-04-10T01:54:27;5.00;99.90
27900;DHT22;15243;50.726;7.080;2023-04-10T01:56:54;5.20;99.90
27900;DHT22;15243;50.726;7.080;2023-04-10T01:59:22;5.30;99.90
27900;DHT22;15243;50.726;7.080;2023-04-10T02:01:58;5.40;99.90
27900;DHT22;15243;50.726;7.080;2023-04-10T02:04:26;5.40;99.90
27900;DHT22;15243;50.726;7.080;2023-04-10T02:07:03;5.40;99.90
27900;DHT22;15243;50.726;7.080;2023-04-10T02:09:37;5.40;99.90
27900;DHT22;15243;50.726;7.080;2023-04-10T02:12:09;5.40;99.90
27900;DHT22;15243;50.726;7.080;2023-04-10T02:14:41;5.40;99.90
27900;DHT22;15243;50.726;7.080;2023-04-10T02:17:10;5.40;99.90
27900;DHT22;15243;50.726;7.080;2023-04-10T02:19:40;5.40;99.90
27900;DHT22;15243;50.726;7.080;2023-04-10T02:22:07;5.40;99.90
27900;DHT22;15243;50.726;7.080;2023-04-10T02:24:35;5.40;99.90
27900;DHT22;15243;50.726;7.080;2023-04-10T02:27:02;5.30;99.90
27900;DHT22;15243;50.726;7.080;2023-04-10T02:29:29;5.30;99.90
27900;DHT22;15243;50.726;7.080;2023-04-10T02:31:55;5.30;99.90
27900;DHT22;15243;50.726;7.080;2023-04-10T02:34:22;5.30;99.90
27900;DHT22;15243;50.726;7.080;2023-04-10T02:36:49;5.40;99.90
27900;DHT22;15243;50.726;7.080;2023-04-10T02:39:16;5.40;99.90
27900;DHT22;15243;50.726;7.080;2023-04-10T02:41:44;5.40;99.90
27900;DHT22;15243;50.726;7.080;2023-04-10T02:44:12;5.30;99.90
27900;DHT22;15243;50.726;7.080;2023-04-10T02:46:39;5.40;99.90
27900;DHT22;15243;50.726;7.080;2023-04-10T02:49:07;5.30;99.90
27900;DHT22;15243;50.726;7.080;2023-04-10T02:51:34;5.30;99.90
27900;DHT22;15243;50.726;7.080;2023-04-10T02:54:02;5.30;99.90
27900;DHT22;15243;50.726;7.080;2023-04-10T02:56:32;5.30;99.90
27900;DHT22;15243;50.726;7.080;2023-04-10T02:59:00;5.20;99.90
27900;DHT22;15243;50.726;7.080;2023-04-10T03:01:29;5.30;99.90
27900;DHT22;15243;50.726;7.080;2023-04-10T03:03:56;5.20;99.90
27900;DHT22;15243;50.726;7.080;2023-04-10T03:06:24;5.20;99.90
27900;DHT22;15243;50.726;7.080;2023-04-10T03:08:54;5.20;99.90
27900;DHT22;15243;50.726;7.080;2023-04-10T03:11:22;5.20;99.90
27900;DHT22;15243;50.726;7.080;2023-04-10T03:13:49;5.20;99.90
27900;DHT22;15243;50.726;7.080;2023-04-10T03:16:16;5.10;99.90
27900;DHT22;15243;50.726;7.080;2023-04-10T03:18:45;5.10;99.90
27900;DHT22;15243;50.726;7.080;2023-04-10T03:21:12;5.00;99.90
27900;DHT22;15243;50.726;7.080;2023-04-10T03:23:38;5.00;99.90
27900;DHT22;15243;50.726;7.080;2023-04-10T03:26:06;5.00;99.90
27900;DHT22;15243;50.726;7.080;2023-04-10T03:28:34;5.00;99.90
27900;DHT22;15243;50.726;7.080;2023-04-10T03:31:04;4.90;99.90
27900;DHT22;15243;50.726;7.080;2023-04-10T03:33:31;4.90;99.90
27900;DHT22;15243;50.726;7.080;2023-04-10T03:35:58;4.90;99.90
27900;DHT22;15243;50.726;7.080;2023-04-10T03:38:25;4.90;99.90
27900;DHT22;15243;50.726;7.080;2023-04-10T03:40:52;4.90;99.90
27900;DHT22;15243;50.726;7.080;2023-04-10T03:43:19;4.90;99.90
27900;DHT22;15243;50.726;7.080;2023-04-10T03:45:46;4.90;99.90
27900;DHT22;15243;50.726;7.080;2023-04-10T03:48:13;4.90;99.90
27900;DHT22;15243;50.726;7.080;2023-04-10T03:50:40;5.00;99.90
27900;DHT22;15243;50.726;7.080;2023-04-10T03:53:07;4.90;99.90
27900;DHT22;15243;50.726;7.080;2023-04-10T03:55:34;4.90;99.90
27900;DHT22;15243;50.726;7.080;2023-04-10T03:58:02;4.90;99.90
27900;DHT22;15243;50.726;7.080;2023-04-10T04:00:30;5.00;99.90
27900;DHT22;15243;50.726;7.080;2023-04-10T04:02:57;5.00;99.90
27900;DHT22;15243;50.726;7.080;2023-04-10T04:05:26;5.00;99.90
27900;DHT22;15243;50.726;7.080;2023-04-10T04:07:53;4.90;99.90
27900;DHT22;15243;50.726;7.080;2023-04-10T04:10:20;4.90;99.90
27900;DHT22;15243;50.726;7.080;2023-04-10T04:12:47;4.80;99.90
27900;DHT22;15243;50.726;7.080;2023-04-10T04:15:14;4.70;99.90
27900;DHT22;15243;50.726;7.080;2023-04-10T04:17:41;4.70;99.90
27900;DHT22;15243;50.726;7.080;2023-04-10T04:20:08;4.70;99.90
27900;DHT22;15243;50.726;7.080;2023-04-10T04:22:36;4.70;99.90
27900;DHT22;15243;50.726;7.080;2023-04-10T04:25:03;4.70;99.90
27900;DHT22;15243;50.726;7.080;2023-04-10T04:27:34;4.60;99.90
27900;DHT22;15243;50.726;7.080;2023-04-10T04:30:02;4.60;99.90
27900;DHT22;15243;50.726;7.080;2023-04-10T04:32:29;4.60;99.90
27900;DHT22;15243;50.726;7.080;2023-04-10T04:34:56;4.50;99.90
27900;DHT22;15243;50.726;7.080;2023-04-10T04:37:23;4.40;99.90
27900;DHT22;15243;50.726;7.080;2023-04-10T04:39:51;4.40;99.90
27900;DHT22;15243;50.726;7.080;2023-04-10T04:42:18;4.60;99.90
27900;DHT22;15243;50.726;7.080;2023-04-10T04:44:45;4.60;99.90
27900;DHT22;15243;50.726;7.080;2023-04-10T04:47:13;4.50;99.90
27900;DHT22;15243;50.726;7.080;2023-04-10T04:49:40;4.60;99.90
27900;DHT22;15243;50.726;7.080;2023-04-10T04:52:07;4.50;99.90
27900;DHT22;15243;50.726;7.080;2023-04-10T04:54:34;4.50;99.90
27900;DHT22;15243;50.726;7.080;2023-04-10T04:57:02;4.50;99.90
27900;DHT22;15243;50.726;7.080;2023-04-10T04:59:28;4.50;99.90
27900;DHT22;15243;50.726;7.080;2023-04-10T05:01:56;4.50;99.90
27900;DHT22;15243;50.726;7.080;2023-04-10T05:04:23;4.50;99.90
27900;DHT22;15243;50.726;7.080;2023-04-10T05:06:50;4.50;99.90
27900;DHT22;15243;50.726;7.080;2023-04-10T05:09:18;4.50;99.90
27900;DHT22;15243;50.726;7.080;2023-04-10T05:11:44;4.50;99.90
27900;DHT22;15243;50.726;7.080;2023-04-10T05:14:11;4.50;99.90
27900;DHT22;15243;50.726;7.080;2023-04-10T05:16:38;4.50;99.90
27900;DHT22;15243;50.726;7.080;2023-04-10T05:19:05;4.60;99.90
27900;DHT22;15243;50.726;7.080;2023-04-10T05:21:32;4.60;99.90
27900;DHT22;15243;50.726;7.080;2023-04-10T05:23:59;4.60;99.90
27900;DHT22;15243;50.726;7.080;2023-04-10T05:26:26;4.60;99.90
27900;DHT22;15243;50.726;7.080;2023-04-10T05:28:53;4.70;99.90
27900;DHT22;15243;50.726;7.080;2023-04-10T05:31:20;4.80;99.90
27900;DHT22;15243;50.726;7.080;2023-04-10T05:33:47;4.80;99.90
27900;DHT22;15243;50.726;7.080;2023-04-10T05:36:14;5.00;99.90
27900;DHT22;15243;50.726;7.080;2023-04-10T05:38:43;5.10;99.90
27900;DHT22;15243;50.726;7.080;2023-04-10T05:41:11;5.30;99.90
27900;DHT22;15243;50.726;7.080;2023-04-10T05:43:38;5.40;99.90
27900;DHT22;15243;50.726;7.080;2023-04-10T05:46:05;5.50;99.90
27900;DHT22;15243;50.726;7.080;2023-04-10T05:48:32;5.60;99.90
27900;DHT22;15243;50.726;7.080;2023-04-10T05:50:59;5.80;99.90
27900;DHT22;15243;50.726;7.080;2023-04-10T05:53:31;6.00;99.90
27900;DHT22;15243;50.726;7.080;2023-04-10T05:55:58;6.10;99.90
27900;DHT22;15243;50.726;7.080;2023-04-10T05:58:26;6.20;99.90
27900;DHT22;15243;50.726;7.080;2023-04-10T06:00:53;6.30;99.90
27900;DHT22;15243;50.726;7.080;2023-04-10T06:03:21;6.40;99.90
27900;DHT22;15243;50.726;7.080;2023-04-10T06:05:49;6.50;99.90
27900;DHT22;15243;50.726;7.080;2023-04-10T06:08:17;6.60;99.90
27900;DHT22;15243;50.726;7.080;2023-04-10T06:10:45;6.70;99.90
27900;DHT22;15243;50.726;7.080;2023-04-10T06:13:12;6.80;99.90
27900;DHT22;15243;50.726;7.080;2023-04-10T06:15:41;6.90;99.90
27900;DHT22;15243;50.726;7.080;2023-04-10T06:18:08;7.00;99.90
27900;DHT22;15243;50.726;7.080;2023-04-10T06:20:37;7.00;99.90
27900;DHT22;15243;50.726;7.080;2023-04-10T06:23:04;7.20;99.90
27900;DHT22;15243;50.726;7.080;2023-04-10T06:25:31;7.20;99.90
27900;DHT22;15243;50.726;7.080;2023-04-10T06:27:58;7.40;99.90
27900;DHT22;15243;50.726;7.080;2023-04-10T06:30:26;7.50;99.90
27900;DHT22;15243;50.726;7.080;2023-04-10T06:32:53;7.80;99.90
27900;DHT22;15243;50.726;7.080;2023-04-10T06:35:21;8.00;99.90
27900;DHT22;15243;50.726;7.080;2023-04-10T06:37:48;8.10;99.90
27900;DHT22;15243;50.726;7.080;2023-04-10T06:40:15;8.20;99.90
27900;DHT22;15243;50.726;7.080;2023-04-10T06:42:42;8.30;99.90
27900;DHT22;15243;50.726;7.080;2023-04-10T06:45:09;8.50;99.90
27900;DHT22;15243;50.726;7.080;2023-04-10T06:47:36;8.60;99.90
27900;DHT22;15243;50.726;7.080;2023-04-10T06:50:04;8.80;99.90
27900;DHT22;15243;50.726;7.080;2023-04-10T06:52:31;8.90;99.90
27900;DHT22;15243;50.726;7.080;2023-04-10T06:54:58;8.90;99.90
27900;DHT22;15243;50.726;7.080;2023-04-10T06:57:25;9.00;99.90
27900;DHT22;15243;50.726;7.080;2023-04-10T06:59:52;9.10;99.90
27900;DHT22;15243;50.726;7.080;2023-04-10T07:02:19;9.30;99.90
27900;DHT22;15243;50.726;7.080;2023-04-10T07:04:46;9.40;99.90
27900;DHT22;15243;50.726;7.080;2023-04-10T07:07:14;9.50;99.90
27900;DHT22;15243;50.726;7.080;2023-04-10T07:09:41;9.70;99.90
27900;DHT22;15243;50.726;7.080;2023-04-10T07:12:09;9.80;99.90
27900;DHT22;15243;50.726;7.080;2023-04-10T07:14:36;10.00;99.90
27900;DHT22;15243;50.726;7.080;2023-04-10T07:17:03;10.10;99.90
27900;DHT22;15243;50.726;7.080;2023-04-10T07:19:30;10.40;99.90
27900;DHT22;15243;50.726;7.080;2023-04-10T07:21:59;10.50;99.90
27900;DHT22;15243;50.726;7.080;2023-04-10T07:24:26;10.40;99.90
27900;DHT22;15243;50.726;7.080;2023-04-10T07:26:53;10.40;99.90
27900;DHT22;15243;50.726;7.080;2023-04-10T07:29:20;10.60;99.90
27900;DHT22;15243;50.726;7.080;2023-04-10T07:31:47;10.60;99.90
27900;DHT22;15243;50.726;7.080;2023-04-10T07:34:14;10.80;99.90
27900;DHT22;15243;50.726;7.080;2023-04-10T07:36:41;11.00;99.90
27900;DHT22;15243;50.726;7.080;2023-04-10T07:39:11;11.20;99.90
27900;DHT22;15243;50.726;7.080;2023-04-10T07:41:38;11.50;99.90
27900;DHT22;15243;50.726;7.080;2023-04-10T07:44:06;11.70;99.90
27900;DHT22;15243;50.726;7.080;2023-04-10T07:46:33;11.50;99.90
27900;DHT22;15243;50.726;7.080;2023-04-10T07:49:00;11.50;99.90
27900;DHT22;15243;50.726;7.080;2023-04-10T07:51:27;11.50;99.90
27900;DHT22;15243;50.726;7.080;2023-04-10T07:53:54;11.40;99.90
27900;DHT22;15243;50.726;7.080;2023-04-10T07:56:22;11.40;99.90
27900;DHT22;15243;50.726;7.080;2023-04-10T07:58:50;11.20;99.90
27900;DHT22;15243;50.726;7.080;2023-04-10T08:01:20;11.30;99.90
27900;DHT22;15243;50.726;7.080;2023-04-10T08:03:47;11.30;99.90
27900;DHT22;15243;50.726;7.080;2023-04-10T08:06:14;11.60;99.90
27900;DHT22;15243;50.726;7.080;2023-04-10T08:08:41;11.50;99.90
27900;DHT22;15243;50.726;7.080;2023-04-10T08:11:23;11.40;99.90
27900;DHT22;15243;50.726;7.080;2023-04-10T08:13:55;11.50;99.90
27900;DHT22;15243;50.726;7.080;2023-04-10T08:16:25;11.70;99.90
27900;DHT22;15243;50.726;7.080;2023-04-10T08:18:53;11.80;99.90
27900;DHT22;15243;50.726;7.080;2023-04-10T08:21:22;11.90;99.90
27900;DHT22;15243;50.726;7.080;2023-04-10T08:23:50;12.10;99.90
27900;DHT22;15243;50.726;7.080;2023-04-10T08:26:17;12.30;99.90
27900;DHT22;15243;50.726;7.080;2023-04-10T08:28:49;12.30;99.90
27900;DHT22;15243;50.726;7.080;2023-04-10T08:31:17;12.30;99.90
27900;DHT22;15243;50.726;7.080;2023-04-10T08:33:45;12.60;99.90
27900;DHT22;15243;50.726;7.080;2023-04-10T08:36:12;12.70;99.90
27900;DHT22;15243;50.726;7.080;2023-04-10T08:38:45;12.70;99.90
27900;DHT22;15243;50.726;7.080;2023-04-10T08:41:13;12.90;99.90
27900;DHT22;15243;50.726;7.080;2023-04-10T08:43:41;13.20;99.90
27900;DHT22;15243;50.726;7.080;2023-04-10T08:46:09;13.40;99.90
27900;DHT22;15243;50.726;7.080;2023-04-10T08:49:10;13.20;99.90
27900;DHT22;15243;50.726;7.080;2023-04-10T08:51:47;13.30;99.90
27900;DHT22;15243;50.726;7.080;2023-04-10T08:54:19;13.40;99.90
27900;DHT22;15243;50.726;7.080;2023-04-10T08:56:49;13.60;99.90
27900;DHT22;15243;50.726;7.080;2023-04-10T08:59:19;13.50;99.90
27900;DHT22;15243;50.726;7.080;2023-04-10T09:01:47;13.50;99.90
27900;DHT22;15243;50.726;7.080;2023-04-10T09:04:15;13.40;99.90
27900;DHT22;15243;50.726;7.080;2023-04-10T09:06:44;13.60;99.90
27900;DHT22;15243;50.726;7.080;2023-04-10T09:09:13;13.90;99.90
27900;DHT22;15243;50.726;7.080;2023-04-10T09:16:49;13.90;99.90
27900;DHT22;15243;50.726;7.080;2023-04-10T09:19:29;13.70;99.90
27900;DHT22;15243;50.726;7.080;2023-04-10T09:21:56;13.90;99.90
27900;DHT22;15243;50.726;7.080;2023-04-10T09:24:23;13.90;99.90
27900;DHT22;15243;50.726;7.080;2023-04-10T09:26:52;14.00;99.90
27900;DHT22;15243;50.726;7.080;2023-04-10T09:29:19;14.00;99.90
27900;DHT22;15243;50.726;7.080;2023-04-10T09:31:46;14.20;99.90
27900;DHT22;15243;50.726;7.080;2023-04-10T09:34:21;14.30;99.90
27900;DHT22;15243;50.726;7.080;2023-04-10T09:36:57;14.40;99.90
27900;DHT22;15243;50.726;7.080;2023-04-10T09:39:36;14.60;99.90
27900;DHT22;15243;50.726;7.080;2023-04-10T09:42:04;14.70;99.90
27900;DHT22;15243;50.726;7.080;2023-04-10T09:44:35;14.60;99.90
27900;DHT22;15243;50.726;7.080;2023-04-10T09:47:21;14.70;99.90
27900;DHT22;15243;50.726;7.080;2023-04-10T09:49:58;14.70;99.90
27900;DHT22;15243;50.726;7.080;2023-04-10T09:52:30;14.60;99.90
27900;DHT22;15243;50.726;7.080;2023-04-10T09:55:05;14.70;99.90
27900;DHT22;15243;50.726;7.080;2023-04-10T09:57:36;14.70;99.90
27900;DHT22;15243;50.726;7.080;2023-04-10T10:00:04;15.10;99.90
27900;DHT22;15243;50.726;7.080;2023-04-10T10:02:36;15.30;99.90
27900;DHT22;15243;50.726;7.080;2023-04-10T10:05:05;15.30;99.90
27900;DHT22;15243;50.726;7.080;2023-04-10T10:07:33;15.50;99.90
27900;DHT22;15243;50.726;7.080;2023-04-10T10:10:02;15.50;99.90
27900;DHT22;15243;50.726;7.080;2023-04-10T10:12:50;15.50;99.90
27900;DHT22;15243;50.726;7.080;2023-04-10T10:20:44;15.60;99.90
27900;DHT22;15243;50.726;7.080;2023-04-10T10:23:12;15.60;99.90
27900;DHT22;15243;50.726;7.080;2023-04-10T10:25:42;15.60;99.90
27900;DHT22;15243;50.726;7.080;2023-04-10T10:28:12;15.40;99.90
27900;DHT22;15243;50.726;7.080;2023-04-10T10:30:40;15.50;99.90
27900;DHT22;15243;50.726;7.080;2023-04-10T10:33:09;15.80;98.20
27900;DHT22;15243;50.726;7.080;2023-04-10T10:35:37;15.90;94.30
27900;DHT22;15243;50.726;7.080;2023-04-10T10:38:04;16.30;99.90
27900;DHT22;15243;50.726;7.080;2023-04-10T10:40:53;16.40;82.40
27900;DHT22;15243;50.726;7.080;2023-04-10T10:43:58;16.70;89.10
27900;DHT22;15243;50.726;7.080;2023-04-10T10:47:00;16.50;78.70
27900;DHT22;15243;50.726;7.080;2023-04-10T10:49:52;16.70;77.60
27900;DHT22;15243;50.726;7.080;2023-04-10T10:52:40;17.00;77.00
27900;DHT22;15243;50.726;7.080;2023-04-10T11:08:40;16.90;61.20
27900;DHT22;15243;50.726;7.080;2023-04-10T11:11:22;16.80;60.30
27900;DHT22;15243;50.726;7.080;2023-04-10T11:16:19;16.80;63.30
27900;DHT22;15243;50.726;7.080;2023-04-10T11:21:43;17.10;60.70
27900;DHT22;15243;50.726;7.080;2023-04-10T11:24:24;17.30;59.60
27900;DHT22;15243;50.726;7.080;2023-04-10T11:26:53;17.20;55.90
27900;DHT22;15243;50.726;7.080;2023-04-10T11:31:56;17.80;53.30
27900;DHT22;15243;50.726;7.080;2023-04-10T11:34:24;17.90;53.80
27900;DHT22;15243;50.726;7.080;2023-04-10T11:36:53;17.70;51.20
27900;DHT22;15243;50.726;7.080;2023-04-10T11:39:20;17.40;42.00
27900;DHT22;15243;50.726;7.080;2023-04-10T11:41:52;17.50;41.90
27900;DHT22;15243;50.726;7.080;2023-04-10T11:44:45;17.50;45.00
27900;DHT22;15243;50.726;7.080;2023-04-10T11:47:14;17.60;39.90
27900;DHT22;15243;50.726;7.080;2023-04-10T11:49:52;17.30;37.30
27900;DHT22;15243;50.726;7.080;2023-04-10T11:52:24;16.90;34.10
27900;DHT22;15243;50.726;7.080;2023-04-10T11:54:52;17.10;36.90
27900;DHT22;15243;50.726;7.080;2023-04-10T11:57:18;17.10;35.40
27900;DHT22;15243;50.726;7.080;2023-04-10T11:59:49;17.20;33.90
27900;DHT22;15243;50.726;7.080;2023-04-10T12:02:17;17.00;33.00
27900;DHT22;15243;50.726;7.080;2023-04-10T12:04:44;17.10;35.60
27900;DHT22;15243;50.726;7.080;2023-04-10T12:07:11;17.20;34.10
27900;DHT22;15243;50.726;7.080;2023-04-10T12:09:39;17.20;34.10
27900;DHT22;15243;50.726;7.080;2023-04-10T12:12:07;17.30;34.50
27900;DHT22;15243;50.726;7.080;2023-04-10T12:14:36;17.50;38.10
27900;DHT22;15243;50.726;7.080;2023-04-10T12:17:05;17.30;31.60
27900;DHT22;15243;50.726;7.080;2023-04-10T12:19:33;17.40;34.20
27900;DHT22;15243;50.726;7.080;2023-04-10T12:22:01;17.40;32.60
27900;DHT22;15243;50.726;7.080;2023-04-10T12:24:51;17.40;34.00
27900;DHT22;15243;50.726;7.080;2023-04-10T12:27:23;17.50;33.00
27900;DHT22;15243;50.726;7.080;2023-04-10T12:29:56;17.60;33.70
27900;DHT22;15243;50.726;7.080;2023-04-10T12:32:24;17.50;31.90
27900;DHT22;15243;50.726;7.080;2023-04-10T12:34:57;17.60;32.50
27900;DHT22;15243;50.726;7.080;2023-04-10T12:37:45;17.80;33.80
27900;DHT22;15243;50.726;7.080;2023-04-10T12:40:13;18.00;33.60
27900;DHT22;15243;50.726;7.080;2023-04-10T12:42:40;18.10;32.10
27900;DHT22;15243;50.726;7.080;2023-04-10T12:45:10;18.00;32.40
27900;DHT22;15243;50.726;7.080;2023-04-10T12:47:47;17.90;31.60
27900;DHT22;15243;50.726;7.080;2023-04-10T12:50:16;18.10;32.50
27900;DHT22;15243;50.726;7.080;2023-04-10T12:52:45;18.30;34.90
27900;DHT22;15243;50.726;7.080;2023-04-10T12:55:17;18.50;36.30
27900;DHT22;15243;50.726;7.080;2023-04-10T12:57:46;18.70;31.60
27900;DHT22;15243;50.726;7.080;2023-04-10T13:00:16;18.70;28.60
27900;DHT22;15243;50.726;7.080;2023-04-10T13:02:44;18.60;29.80
27900;DHT22;15243;50.726;7.080;2023-04-10T13:05:11;18.70;30.80
27900;DHT22;15243;50.726;7.080;2023-04-10T13:07:38;18.60;30.20
27900;DHT22;15243;50.726;7.080;2023-04-10T13:10:07;18.60;29.20
27900;DHT22;15243;50.726;7.080;2023-04-10T13:12:35;18.90;30.70
27900;DHT22;15243;50.726;7.080;2023-04-10T13:15:04;18.70;30.30
27900;DHT22;15243;50.726;7.080;2023-04-10T13:17:33;18.80;32.90
27900;DHT22;15243;50.726;7.080;2023-04-10T13:20:00;18.70;31.70
27900;DHT22;15243;50.726;7.080;2023-04-10T13:22:28;18.60;31.60
27900;DHT22;15243;50.726;7.080;2023-04-10T13:24:55;18.80;36.90
27900;DHT22;15243;50.726;7.080;2023-04-10T13:27:22;18.70;35.20
27900;DHT22;15243;50.726;7.080;2023-04-10T13:29:49;18.90;33.20
27900;DHT22;15243;50.726;7.080;2023-04-10T13:32:16;18.90;32.40
27900;DHT22;15243;50.726;7.080;2023-04-10T13:34:43;18.80;32.50
27900;DHT22;15243;50.726;7.080;2023-04-10T13:37:10;19.30;33.00
27900;DHT22;15243;50.726;7.080;2023-04-10T13:39:40;19.40;32.00
27900;DHT22;15243;50.726;7.080;2023-04-10T13:42:09;18.90;30.50
27900;DHT22;15243;50.726;7.080;2023-04-10T13:44:36;19.00;33.20
27900;DHT22;15243;50.726;7.080;2023-04-10T13:47:03;19.10;32.50
27900;DHT22;15243;50.726;7.080;2023-04-10T13:49:30;19.20;32.00
27900;DHT22;15243;50.726;7.080;2023-04-10T13:51:57;19.30;33.10
27900;DHT22;15243;50.726;7.080;2023-04-10T13:54:24;19.90;35.30
27900;DHT22;15243;50.726;7.080;2023-04-10T13:56:52;19.90;32.80
27900;DHT22;15243;50.726;7.080;2023-04-10T13:59:20;20.20;32.70
27900;DHT22;15243;50.726;7.080;2023-04-10T14:01:47;20.20;29.50
27900;DHT22;15243;50.726;7.080;2023-04-10T14:04:18;20.40;28.70
27900;DHT22;15243;50.726;7.080;2023-04-10T14:06:45;20.70;28.90
27900;DHT22;15243;50.726;7.080;2023-04-10T14:09:12;20.30;27.10
27900;DHT22;15243;50.726;7.080;2023-04-10T14:11:39;20.10;27.70
27900;DHT22;15243;50.726;7.080;2023-04-10T14:14:06;20.70;26.60
27900;DHT22;15243;50.726;7.080;2023-04-10T14:16:33;20.70;24.70
27900;DHT22;15243;50.726;7.080;2023-04-10T14:19:00;20.50;24.30
27900;DHT22;15243;50.726;7.080;2023-04-10T14:21:27;20.10;23.80
27900;DHT22;15243;50.726;7.080;2023-04-10T14:23:54;20.50;23.10
27900;DHT22;15243;50.726;7.080;2023-04-10T14:26:21;20.80;18.50
27900;DHT22;15243;50.726;7.080;2023-04-10T14:28:48;20.60;16.40
27900;DHT22;15243;50.726;7.080;2023-04-10T14:31:15;20.30;14.20
27900;DHT22;15243;50.726;7.080;2023-04-10T14:33:43;19.80;13.90
27900;DHT22;15243;50.726;7.080;2023-04-10T14:36:10;19.70;13.30
27900;DHT22;15243;50.726;7.080;2023-04-10T14:38:37;19.30;11.40
27900;DHT22;15243;50.726;7.080;2023-04-10T14:41:04;19.10;12.30
27900;DHT22;15243;50.726;7.080;2023-04-10T14:43:31;19.10;12.90
27900;DHT22;15243;50.726;7.080;2023-04-10T14:45:58;18.90;13.30
27900;DHT22;15243;50.726;7.080;2023-04-10T14:48:25;18.90;13.40
27900;DHT22;15243;50.726;7.080;2023-04-10T14:50:52;18.70;13.00
27900;DHT22;15243;50.726;7.080;2023-04-10T14:53:21;18.80;13.50
27900;DHT22;15243;50.726;7.080;2023-04-10T14:55:48;18.70;14.40
27900;DHT22;15243;50.726;7.080;2023-04-10T14:58:15;19.00;14.40
27900;DHT22;15243;50.726;7.080;2023-04-10T15:00:43;19.00;13.50
27900;DHT22;15243;50.726;7.080;2023-04-10T15:03:10;19.20;12.90
27900;DHT22;15243;50.726;7.080;2023-04-10T15:05:37;20.10;14.90
27900;DHT22;15243;50.726;7.080;2023-04-10T15:08:07;20.20;13.00
27900;DHT22;15243;50.726;7.080;2023-04-10T15:10:34;20.10;12.30
27900;DHT22;15243;50.726;7.080;2023-04-10T15:13:01;20.00;12.00
27900;DHT22;15243;50.726;7.080;2023-04-10T15:15:27;19.90;12.10
27900;DHT22;15243;50.726;7.080;2023-04-10T15:17:54;19.60;12.70
27900;DHT22;15243;50.726;7.080;2023-04-10T15:20:22;19.20;12.50
27900;DHT22;15243;50.726;7.080;2023-04-10T15:22:49;19.20;14.20
27900;DHT22;15243;50.726;7.080;2023-04-10T15:25:16;19.10;13.80
27900;DHT22;15243;50.726;7.080;2023-04-10T15:27:43;19.10;15.60
27900;DHT22;15243;50.726;7.080;2023-04-10T15:30:11;19.00;14.70
27900;DHT22;15243;50.726;7.080;2023-04-10T15:32:38;18.90;14.00
27900;DHT22;15243;50.726;7.080;2023-04-10T15:35:05;18.60;15.20
27900;DHT22;15243;50.726;7.080;2023-04-10T15:37:34;18.20;15.80
27900;DHT22;15243;50.726;7.080;2023-04-10T15:40:06;18.10;18.20
27900;DHT22;15243;50.726;7.080;2023-04-10T15:42:33;18.10;20.40
27900;DHT22;15243;50.726;7.080;2023-04-10T15:45:01;18.00;21.00
27900;DHT22;15243;50.726;7.080;2023-04-10T15:47:28;18.00;22.00
27900;DHT22;15243;50.726;7.080;2023-04-10T15:49:56;17.80;22.30
27900;DHT22;15243;50.726;7.080;2023-04-10T15:52:23;17.70;23.10
27900;DHT22;15243;50.726;7.080;2023-04-10T15:54:51;17.50;24.20
27900;DHT22;15243;50.726;7.080;2023-04-10T15:57:18;17.30;24.90
27900;DHT22;15243;50.726;7.080;2023-04-10T15:59:45;17.40;27.60
27900;DHT22;15243;50.726;7.080;2023-04-10T16:02:12;17.20;28.50
27900;DHT22;15243;50.726;7.080;2023-04-10T16:04:40;17.30;29.70
27900;DHT22;15243;50.726;7.080;2023-04-10T16:07:07;17.30;32.30
27900;DHT22;15243;50.726;7.080;2023-04-10T16:09:36;17.20;31.80
27900;DHT22;15243;50.726;7.080;2023-04-10T16:12:03;17.00;32.90
27900;DHT22;15243;50.726;7.080;2023-04-10T16:14:31;17.10;33.60
27900;DHT22;15243;50.726;7.080;2023-04-10T16:16:58;17.00;36.50
27900;DHT22;15243;50.726;7.080;2023-04-10T16:19:28;16.90;36.50
27900;DHT22;15243;50.726;7.080;2023-04-10T16:21:56;16.70;41.80
27900;DHT22;15243;50.726;7.080;2023-04-10T16:24:23;16.60;44.20
27900;DHT22;15243;50.726;7.080;2023-04-10T16:26:50;16.60;44.50
27900;DHT22;15243;50.726;7.080;2023-04-10T16:29:20;16.50;46.70
27900;DHT22;15243;50.726;7.080;2023-04-10T16:31:47;16.60;50.10
27900;DHT22;15243;50.726;7.080;2023-04-10T16:34:14;16.60;52.20
27900;DHT22;15243;50.726;7.080;2023-04-10T16:36:41;16.40;53.20